createdAt,value
2018-05-31T00:00:05.919Z,992.25
2018-05-31T00:01:05.913Z,992.24
2018-05-31T00:02:05.917Z,992.26
2018-05-31T00:03:05.881Z,992.26
2018-05-31T00:04:05.877Z,992.30
2018-05-31T00:05:05.857Z,992.26
2018-05-31T00:06:05.845Z,992.27
2018-05-31T00:07:05.840Z,992.29
2018-05-31T00:08:05.830Z,992.25
2018-05-31T00:09:05.809Z,992.26
2018-05-31T00:10:05.797Z,992.21
2018-05-31T00:11:05.784Z,992.20
2018-05-31T00:12:05.771Z,992.17
2018-05-31T00:13:05.762Z,992.14
2018-05-31T00:14:05.749Z,992.16
2018-05-31T00:15:05.736Z,992.18
2018-05-31T00:16:05.727Z,992.20
2018-05-31T00:17:05.717Z,992.22
2018-05-31T00:18:05.698Z,992.26
2018-05-31T00:19:05.688Z,992.20
2018-05-31T00:20:05.675Z,992.26
2018-05-31T00:21:05.666Z,992.18
2018-05-31T00:22:05.656Z,992.20
2018-05-31T00:23:05.643Z,992.19
2018-05-31T00:24:05.626Z,992.17
2018-05-31T00:25:05.638Z,992.16
2018-05-31T00:26:05.608Z,992.19
2018-05-31T00:27:05.586Z,992.18
2018-05-31T00:28:05.589Z,992.22
2018-05-31T00:29:05.560Z,992.21
2018-05-31T00:30:05.551Z,992.22
2018-05-31T00:31:05.541Z,992.21
2018-05-31T00:32:05.525Z,992.18
2018-05-31T00:33:05.525Z,992.17
2018-05-31T00:34:05.506Z,992.16
2018-05-31T00:35:05.491Z,992.14
2018-05-31T00:36:05.483Z,992.18
2018-05-31T00:37:05.483Z,992.17
2018-05-31T00:38:05.455Z,992.17
2018-05-31T00:39:05.445Z,992.15
2018-05-31T00:40:05.422Z,992.12
2018-05-31T00:41:05.427Z,992.11
2018-05-31T00:42:05.397Z,992.09
2018-05-31T00:43:05.395Z,992.09
2018-05-31T00:44:05.390Z,992.05
2018-05-31T00:45:05.358Z,992.05
2018-05-31T00:46:05.349Z,992.06
2018-05-31T00:47:05.345Z,992.03
2018-05-31T00:48:05.341Z,991.99
2018-05-31T00:49:05.313Z,992.00
2018-05-31T00:50:05.304Z,991.99
2018-05-31T00:51:05.291Z,991.97
2018-05-31T00:52:05.285Z,991.93
2018-05-31T00:53:05.263Z,991.96
2018-05-31T00:54:05.267Z,991.92
2018-05-31T00:55:05.238Z,991.90
2018-05-31T00:56:05.225Z,991.91
2018-05-31T00:57:05.218Z,991.91
2018-05-31T00:58:05.207Z,991.89
2018-05-31T00:59:05.194Z,991.89
2018-05-31T01:00:05.210Z,991.87
2018-05-31T01:01:05.177Z,991.90
2018-05-31T01:02:05.167Z,991.89
2018-05-31T01:03:05.132Z,991.89
2018-05-31T01:04:05.127Z,991.88
2018-05-31T01:05:05.112Z,991.86
2018-05-31T01:06:05.104Z,991.90
2018-05-31T01:07:05.091Z,991.88
2018-05-31T01:08:05.085Z,991.89
2018-05-31T01:09:05.063Z,991.88
2018-05-31T01:10:05.050Z,991.90
2018-05-31T01:11:05.041Z,991.86
2018-05-31T01:12:05.034Z,991.88
2018-05-31T01:13:05.019Z,991.85
2018-05-31T01:14:04.999Z,991.87
2018-05-31T01:15:05.009Z,991.86
2018-05-31T01:16:04.974Z,991.84
2018-05-31T01:17:04.960Z,991.81
2018-05-31T01:18:04.960Z,991.84
2018-05-31T01:19:04.943Z,991.81
2018-05-31T01:20:04.923Z,991.84
2018-05-31T01:21:04.910Z,991.81
2018-05-31T01:22:04.891Z,991.83
2018-05-31T01:23:04.890Z,991.84
2018-05-31T01:24:04.876Z,991.85
2018-05-31T01:25:04.864Z,991.86
2018-05-31T01:26:04.847Z,991.88
2018-05-31T01:27:04.832Z,991.93
2018-05-31T01:28:04.822Z,992.04
2018-05-31T01:29:04.803Z,992.12
2018-05-31T01:30:04.793Z,992.24
2018-05-31T01:31:04.787Z,992.36
2018-05-31T01:32:04.829Z,992.29
2018-05-31T01:33:04.759Z,992.28
2018-05-31T01:34:04.752Z,992.31
2018-05-31T01:35:04.739Z,992.33
2018-05-31T01:36:04.719Z,992.42
2018-05-31T01:37:04.710Z,992.37
2018-05-31T01:38:04.698Z,992.33
2018-05-31T01:39:04.679Z,992.31
2018-05-31T01:40:04.669Z,992.26
2018-05-31T01:41:04.654Z,992.27
2018-05-31T01:42:04.647Z,992.31
2018-05-31T01:43:04.631Z,992.32
2018-05-31T01:44:04.637Z,992.34
2018-05-31T01:45:04.609Z,992.37
2018-05-31T01:46:04.599Z,992.38
2018-05-31T01:47:04.583Z,992.38
2018-05-31T01:48:04.577Z,992.37
2018-05-31T01:49:04.558Z,992.36
2018-05-31T01:50:04.538Z,992.38
2018-05-31T01:51:04.550Z,992.37
2018-05-31T01:52:04.519Z,992.32
2018-05-31T01:53:04.506Z,992.29
2018-05-31T01:54:04.496Z,992.30
2018-05-31T01:55:04.493Z,992.25
2018-05-31T01:56:04.467Z,992.26
2018-05-31T01:57:04.456Z,992.26
2018-05-31T01:58:04.442Z,992.23
2018-05-31T01:59:04.431Z,992.21
2018-05-31T02:00:04.419Z,992.19
2018-05-31T02:01:04.409Z,992.21
2018-05-31T02:02:04.394Z,992.24
2018-05-31T02:03:04.391Z,992.21
2018-05-31T02:04:04.371Z,992.21
2018-05-31T02:05:04.366Z,992.21
2018-05-31T02:06:04.350Z,992.20
2018-05-31T02:07:04.333Z,992.19
2018-05-31T02:08:04.326Z,992.15
2018-05-31T02:09:04.311Z,992.14
2018-05-31T02:10:04.314Z,992.11
2018-05-31T02:11:04.285Z,992.10
2018-05-31T02:12:04.274Z,992.10
2018-05-31T02:13:04.265Z,992.11
2018-05-31T02:14:04.249Z,992.13
2018-05-31T02:15:04.246Z,992.10
2018-05-31T02:16:04.230Z,992.12
2018-05-31T02:17:04.228Z,992.15
2018-05-31T02:18:04.207Z,992.15
2018-05-31T02:19:04.187Z,992.14
2018-05-31T02:20:04.194Z,992.15
2018-05-31T02:21:04.165Z,992.15
2018-05-31T02:22:04.149Z,992.18
2018-05-31T02:23:04.162Z,992.15
2018-05-31T02:24:04.126Z,992.16
2018-05-31T02:25:04.117Z,992.14
2018-05-31T02:26:04.101Z,992.13
2018-05-31T02:27:04.094Z,992.12
2018-05-31T02:28:04.085Z,992.13
2018-05-31T02:29:04.066Z,992.10
2018-05-31T02:30:04.053Z,992.14
2018-05-31T02:31:04.047Z,992.08
2018-05-31T02:32:04.031Z,992.11
2018-05-31T02:33:04.017Z,992.08
2018-05-31T02:34:04.005Z,992.11
2018-05-31T02:35:03.992Z,992.09
2018-05-31T02:36:03.985Z,992.11
2018-05-31T02:37:03.966Z,992.10
2018-05-31T02:38:03.963Z,992.10
2018-05-31T02:39:03.947Z,992.12
2018-05-31T02:40:03.935Z,992.10
2018-05-31T02:41:03.919Z,992.15
2018-05-31T02:42:03.912Z,992.11
2018-05-31T02:43:03.899Z,992.17
2018-05-31T02:44:03.893Z,992.15
2018-05-31T02:45:03.883Z,992.16
2018-05-31T02:46:03.867Z,992.17
2018-05-31T02:47:03.851Z,992.21
2018-05-31T02:48:03.836Z,992.20
2018-05-31T02:49:03.839Z,992.21
2018-05-31T02:50:03.816Z,992.24
2018-05-31T02:51:03.803Z,992.25
2018-05-31T02:52:03.795Z,992.27
2018-05-31T02:53:03.777Z,992.28
2018-05-31T02:54:03.764Z,992.25
2018-05-31T02:55:03.755Z,992.26
2018-05-31T02:56:03.746Z,992.24
2018-05-31T02:57:03.726Z,992.20
2018-05-31T02:58:03.713Z,992.11
2018-05-31T02:59:03.707Z,992.13
2018-05-31T03:00:03.691Z,992.09
2018-05-31T03:01:03.676Z,992.10
2018-05-31T03:02:03.668Z,992.10
2018-05-31T03:03:03.661Z,992.11
2018-05-31T03:04:03.643Z,992.11
2018-05-31T03:05:03.628Z,992.12
2018-05-31T03:06:03.620Z,992.16
2018-05-31T03:07:03.613Z,992.17
2018-05-31T03:08:03.595Z,992.19
2018-05-31T03:09:03.578Z,992.19
2018-05-31T03:10:03.601Z,992.20
2018-05-31T03:11:03.553Z,992.21
2018-05-31T03:12:03.543Z,992.20
2018-05-31T03:13:03.552Z,992.21
2018-05-31T03:14:03.518Z,992.27
2018-05-31T03:15:03.504Z,992.25
2018-05-31T03:16:03.495Z,992.27
2018-05-31T03:17:03.478Z,992.28
2018-05-31T03:18:03.468Z,992.26
2018-05-31T03:19:03.458Z,992.24
2018-05-31T03:20:03.443Z,992.25
2018-05-31T03:21:03.445Z,992.24
2018-05-31T03:22:03.414Z,992.20
2018-05-31T03:23:03.400Z,992.27
2018-05-31T03:24:03.397Z,992.31
2018-05-31T03:25:03.381Z,992.28
2018-05-31T03:26:03.369Z,992.30
2018-05-31T03:27:03.351Z,992.33
2018-05-31T03:28:03.340Z,992.33
2018-05-31T03:29:03.330Z,992.35
2018-05-31T03:30:03.318Z,992.37
2018-05-31T03:31:03.305Z,992.42
2018-05-31T03:32:03.295Z,992.47
2018-05-31T03:33:03.276Z,992.46
2018-05-31T03:34:03.267Z,992.49
2018-05-31T03:35:03.258Z,992.47
2018-05-31T03:36:03.242Z,992.45
2018-05-31T03:37:03.225Z,992.46
2018-05-31T03:38:03.212Z,992.43
2018-05-31T03:39:03.201Z,992.41
2018-05-31T03:40:03.203Z,992.38
2018-05-31T03:41:03.177Z,992.40
2018-05-31T03:42:03.187Z,992.41
2018-05-31T03:43:03.152Z,992.42
2018-05-31T03:44:03.136Z,992.41
2018-05-31T03:45:03.130Z,992.37
2018-05-31T03:46:03.116Z,992.41
2018-05-31T03:47:03.102Z,992.35
2018-05-31T03:48:03.087Z,992.36
2018-05-31T03:49:03.072Z,992.36
2018-05-31T03:50:03.067Z,992.30
2018-05-31T03:51:03.050Z,992.31
2018-05-31T03:52:03.044Z,992.33
2018-05-31T03:53:03.018Z,992.32
2018-05-31T03:54:03.009Z,992.32
2018-05-31T03:55:02.999Z,992.33
2018-05-31T03:56:02.985Z,992.34
2018-05-31T03:57:02.973Z,992.33
2018-05-31T03:58:02.960Z,992.34
2018-05-31T03:59:02.951Z,992.34
2018-05-31T04:00:02.941Z,992.39
2018-05-31T04:01:02.923Z,992.38
2018-05-31T04:02:02.915Z,992.39
2018-05-31T04:03:02.899Z,992.39
2018-05-31T04:04:02.887Z,992.41
2018-05-31T04:05:02.868Z,992.45
2018-05-31T04:06:02.858Z,992.46
2018-05-31T04:07:02.849Z,992.45
2018-05-31T04:08:02.839Z,992.45
2018-05-31T04:09:02.827Z,992.44
2018-05-31T04:10:02.813Z,992.46
2018-05-31T04:11:02.795Z,992.45
2018-05-31T04:12:02.782Z,992.44
2018-05-31T04:13:02.799Z,992.44
2018-05-31T04:14:02.758Z,992.44
2018-05-31T04:15:02.747Z,992.44
2018-05-31T04:16:02.737Z,992.43
2018-05-31T04:17:02.718Z,992.39
2018-05-31T04:18:02.714Z,992.41
2018-05-31T04:19:02.698Z,992.38
2018-05-31T04:20:02.683Z,992.41
2018-05-31T04:21:02.677Z,992.43
2018-05-31T04:22:02.660Z,992.41
2018-05-31T04:23:02.652Z,992.43
2018-05-31T04:24:02.642Z,992.41
2018-05-31T04:25:02.626Z,992.39
2018-05-31T04:26:02.616Z,992.39
2018-05-31T04:27:02.599Z,992.37
2018-05-31T04:28:02.581Z,992.34
2018-05-31T04:29:02.568Z,992.33
2018-05-31T04:30:02.561Z,992.34
2018-05-31T04:31:02.545Z,992.31
2018-05-31T04:32:02.539Z,992.31
2018-05-31T04:33:02.520Z,992.29
2018-05-31T04:34:02.511Z,992.26
2018-05-31T04:35:02.499Z,992.27
2018-05-31T04:36:02.498Z,992.24
2018-05-31T04:37:02.474Z,992.26
2018-05-31T04:38:02.461Z,992.29
2018-05-31T04:39:02.450Z,992.24
2018-05-31T04:40:02.439Z,992.27
2018-05-31T04:41:02.420Z,992.26
2018-05-31T04:42:02.413Z,992.23
2018-05-31T04:43:02.394Z,992.28
2018-05-31T04:44:02.400Z,992.30
2018-05-31T04:45:02.378Z,992.23
2018-05-31T04:46:02.365Z,992.28
2018-05-31T04:47:02.350Z,992.25
2018-05-31T04:48:02.337Z,992.30
2018-05-31T04:49:02.326Z,992.29
2018-05-31T04:50:02.308Z,992.29
2018-05-31T04:51:02.302Z,992.32
2018-05-31T04:52:02.286Z,992.27
2018-05-31T04:53:02.280Z,992.30
2018-05-31T04:54:02.286Z,992.32
2018-05-31T04:55:02.248Z,992.36
2018-05-31T04:56:02.241Z,992.37
2018-05-31T04:57:02.227Z,992.39
2018-05-31T04:58:02.215Z,992.39
2018-05-31T04:59:02.206Z,992.42
2018-05-31T05:00:02.198Z,992.40
2018-05-31T05:01:02.174Z,992.40
2018-05-31T05:02:02.167Z,992.35
2018-05-31T05:03:02.198Z,992.35
2018-05-31T05:04:02.164Z,992.34
2018-05-31T05:05:02.136Z,992.31
2018-05-31T05:06:02.113Z,992.33
2018-05-31T05:07:02.101Z,992.35
2018-05-31T05:08:02.091Z,992.29
2018-05-31T05:09:02.077Z,992.31
2018-05-31T05:10:02.070Z,992.26
2018-05-31T05:11:02.058Z,992.29
2018-05-31T05:12:02.042Z,992.25
2018-05-31T05:13:02.030Z,992.32
2018-05-31T05:14:02.026Z,992.33
2018-05-31T05:15:02.008Z,992.38
2018-05-31T05:16:01.994Z,992.38
2018-05-31T05:17:01.984Z,992.38
2018-05-31T05:18:01.980Z,992.40
2018-05-31T05:19:01.959Z,992.41
2018-05-31T05:20:01.956Z,992.41
2018-05-31T05:21:01.934Z,992.39
2018-05-31T05:22:01.924Z,992.41
2018-05-31T05:23:01.914Z,992.44
2018-05-31T05:24:01.921Z,992.43
2018-05-31T05:25:01.892Z,992.42
2018-05-31T05:26:01.881Z,992.46
2018-05-31T05:27:01.862Z,992.42
2018-05-31T05:28:01.879Z,992.45
2018-05-31T05:29:01.849Z,992.40
2018-05-31T05:30:01.843Z,992.43
2018-05-31T05:31:01.828Z,992.43
2018-05-31T05:32:01.829Z,992.40
2018-05-31T05:33:01.801Z,992.41
2018-05-31T05:34:01.785Z,992.41
2018-05-31T05:35:01.773Z,992.42
2018-05-31T05:36:01.766Z,992.41
2018-05-31T05:37:01.747Z,992.50
2018-05-31T05:38:01.740Z,992.54
2018-05-31T05:39:01.736Z,992.57
2018-05-31T05:40:01.718Z,992.57
2018-05-31T05:41:01.709Z,992.57
2018-05-31T05:42:01.696Z,992.59
2018-05-31T05:43:01.689Z,992.60
2018-05-31T05:44:01.676Z,992.56
2018-05-31T05:45:01.668Z,992.64
2018-05-31T05:46:01.647Z,992.66
2018-05-31T05:47:01.648Z,992.66
2018-05-31T05:48:01.625Z,992.69
2018-05-31T05:49:01.638Z,992.73
2018-05-31T05:50:01.612Z,992.74
2018-05-31T05:51:01.600Z,992.77
2018-05-31T05:52:01.615Z,992.82
2018-05-31T05:53:01.576Z,992.74
2018-05-31T05:54:01.568Z,992.74
2018-05-31T05:55:01.549Z,992.68
2018-05-31T05:56:01.542Z,992.67
2018-05-31T05:57:01.532Z,992.66
2018-05-31T05:58:01.532Z,992.69
2018-05-31T05:59:01.507Z,992.74
2018-05-31T06:00:01.497Z,992.76
2018-05-31T06:01:01.494Z,992.78
2018-05-31T06:02:01.478Z,992.83
2018-05-31T06:03:01.466Z,992.89
2018-05-31T06:04:01.462Z,992.90
2018-05-31T06:05:01.461Z,992.88
2018-05-31T06:06:01.433Z,992.89
2018-05-31T06:07:01.443Z,992.95
2018-05-31T06:08:01.421Z,993.02
2018-05-31T06:09:01.413Z,993.01
2018-05-31T06:10:01.462Z,993.04
2018-05-31T06:11:01.391Z,993.05
2018-05-31T06:12:01.381Z,993.11
2018-05-31T06:13:01.375Z,993.09
2018-05-31T06:14:01.359Z,993.11
2018-05-31T06:15:01.350Z,993.17
2018-05-31T06:16:01.347Z,993.14
2018-05-31T06:17:01.335Z,993.10
2018-05-31T06:18:01.347Z,993.12
2018-05-31T06:19:01.322Z,993.08
2018-05-31T06:20:01.319Z,993.11
2018-05-31T06:21:01.299Z,993.09
2018-05-31T06:22:01.296Z,993.12
2018-05-31T06:23:01.286Z,993.09
2018-05-31T06:24:01.279Z,993.09
2018-05-31T06:25:01.266Z,993.12
2018-05-31T06:26:01.259Z,993.15
2018-05-31T06:27:01.244Z,993.14
2018-05-31T06:28:01.240Z,993.14
2018-05-31T06:29:01.229Z,993.11
2018-05-31T06:30:01.225Z,993.15
2018-05-31T06:31:01.220Z,993.13
2018-05-31T06:32:01.205Z,993.13
2018-05-31T06:33:01.202Z,993.08
2018-05-31T06:34:01.196Z,993.09
2018-05-31T06:35:01.187Z,993.07
2018-05-31T06:36:01.179Z,993.05
2018-05-31T06:37:01.163Z,993.07
2018-05-31T06:38:01.164Z,993.05
2018-05-31T06:39:01.161Z,993.07
2018-05-31T06:40:01.147Z,993.05
2018-05-31T06:41:01.131Z,993.09
2018-05-31T06:42:01.131Z,993.08
2018-05-31T06:43:01.153Z,993.06
2018-05-31T06:44:01.118Z,993.07
2018-05-31T06:45:01.124Z,993.08
2018-05-31T06:46:01.109Z,993.06
2018-05-31T06:47:01.093Z,993.08
2018-05-31T06:48:01.087Z,993.09
2018-05-31T06:49:01.086Z,993.08
2018-05-31T06:50:01.077Z,993.09
2018-05-31T06:51:01.062Z,993.12
2018-05-31T06:52:01.061Z,993.10
2018-05-31T06:53:01.050Z,993.12
2018-05-31T06:54:01.047Z,993.11
2018-05-31T06:55:01.040Z,993.13
2018-05-31T06:56:01.035Z,993.14
2018-05-31T06:57:01.025Z,993.10
2018-05-31T06:58:01.014Z,993.06
2018-05-31T06:59:01.012Z,993.05
2018-05-31T07:00:01.003Z,993.05
2018-05-31T07:01:00.999Z,993.06
2018-05-31T07:02:00.983Z,993.00
2018-05-31T07:03:00.980Z,993.02
2018-05-31T07:04:00.973Z,993.00
2018-05-31T07:05:00.963Z,993.02
2018-05-31T07:06:00.958Z,993.00
2018-05-31T07:07:00.948Z,993.04
2018-05-31T07:08:00.949Z,993.03
2018-05-31T07:09:00.934Z,993.05
2018-05-31T07:10:00.932Z,993.03
2018-05-31T07:11:00.919Z,993.06
2018-05-31T07:12:00.914Z,993.10
2018-05-31T07:13:00.914Z,993.05
2018-05-31T07:14:00.902Z,993.05
2018-05-31T07:15:00.893Z,993.02
2018-05-31T07:16:00.901Z,993.01
2018-05-31T07:17:00.874Z,993.01
2018-05-31T07:18:00.871Z,993.03
2018-05-31T07:19:00.862Z,992.99
2018-05-31T07:20:00.877Z,993.02
2018-05-31T07:21:00.856Z,993.00
2018-05-31T07:22:00.849Z,993.00
2018-05-31T07:23:00.839Z,993.00
2018-05-31T07:24:00.836Z,992.98
2018-05-31T07:25:00.820Z,992.98
2018-05-31T07:26:00.833Z,992.99
2018-05-31T07:27:00.818Z,993.00
2018-05-31T07:28:00.803Z,992.98
2018-05-31T07:29:00.803Z,992.98
2018-05-31T07:30:00.803Z,992.95
2018-05-31T07:31:00.791Z,992.92
2018-05-31T07:32:00.783Z,992.92
2018-05-31T07:33:00.779Z,992.95
2018-05-31T07:34:00.789Z,993.00
2018-05-31T07:35:00.760Z,993.01
2018-05-31T07:36:00.756Z,993.00
2018-05-31T07:37:00.747Z,992.99
2018-05-31T07:38:00.763Z,993.03
2018-05-31T07:39:00.747Z,993.04
2018-05-31T07:40:00.737Z,993.05
2018-05-31T07:41:00.733Z,993.10
2018-05-31T07:42:00.730Z,993.15
2018-05-31T07:43:00.725Z,993.17
2018-05-31T07:44:00.718Z,993.15
2018-05-31T07:45:00.717Z,993.15
2018-05-31T07:46:00.708Z,993.10
2018-05-31T07:47:00.711Z,993.13
2018-05-31T07:48:00.705Z,993.10
2018-05-31T07:49:00.701Z,993.10
2018-05-31T07:50:00.695Z,993.10
2018-05-31T07:51:00.692Z,993.12
2018-05-31T07:52:00.686Z,993.17
2018-05-31T07:53:00.699Z,993.18
2018-05-31T07:54:00.684Z,993.18
2018-05-31T07:55:00.689Z,993.22
2018-05-31T07:56:00.681Z,993.21
2018-05-31T07:57:00.674Z,993.18
2018-05-31T07:58:00.693Z,993.14
2018-05-31T07:59:00.667Z,993.15
2018-05-31T08:00:00.660Z,993.16
2018-05-31T08:01:00.654Z,993.20
2018-05-31T08:02:00.669Z,993.19
2018-05-31T08:03:00.654Z,993.18
2018-05-31T08:04:00.650Z,993.22
2018-05-31T08:05:00.644Z,993.23
2018-05-31T08:06:00.727Z,993.23
2018-05-31T08:07:00.644Z,993.23
2018-05-31T08:08:00.651Z,993.24
2018-05-31T08:09:00.634Z,993.23
2018-05-31T08:10:00.638Z,993.25
2018-05-31T08:11:00.635Z,993.22
2018-05-31T08:12:00.626Z,993.25
2018-05-31T08:13:00.629Z,993.26
2018-05-31T08:14:00.632Z,993.31
2018-05-31T08:15:00.620Z,993.31
2018-05-31T08:16:00.632Z,993.30
2018-05-31T08:17:00.626Z,993.31
2018-05-31T08:18:00.614Z,993.32
2018-05-31T08:19:00.626Z,993.32
2018-05-31T08:20:00.620Z,993.28
2018-05-31T08:21:00.607Z,993.26
2018-05-31T08:22:00.616Z,993.29
2018-05-31T08:23:00.604Z,993.30
2018-05-31T08:24:00.606Z,993.23
2018-05-31T08:25:00.609Z,993.24
2018-05-31T08:26:00.599Z,993.28
2018-05-31T08:27:00.597Z,993.29
2018-05-31T08:28:00.594Z,993.28
2018-05-31T08:29:00.584Z,993.25
2018-05-31T08:30:00.588Z,993.26
2018-05-31T08:31:00.603Z,993.25
2018-05-31T08:32:00.593Z,993.26
2018-05-31T08:33:00.578Z,993.23
2018-05-31T08:34:00.584Z,993.24
2018-05-31T08:35:00.577Z,993.27
2018-05-31T08:36:00.578Z,993.26
2018-05-31T08:37:00.582Z,993.23
2018-05-31T08:38:00.575Z,993.23
2018-05-31T08:39:00.590Z,993.25
2018-05-31T08:40:00.568Z,993.25
2018-05-31T08:41:00.562Z,993.26
2018-05-31T08:42:00.558Z,993.26
2018-05-31T08:43:00.562Z,993.29
2018-05-31T08:44:00.605Z,993.30
2018-05-31T08:45:00.551Z,993.29
2018-05-31T08:46:00.552Z,993.31
2018-05-31T08:47:00.558Z,993.32
2018-05-31T08:48:00.548Z,993.34
2018-05-31T08:49:00.555Z,993.33
2018-05-31T08:50:00.546Z,993.35
2018-05-31T08:51:00.631Z,993.35
2018-05-31T08:52:00.553Z,993.32
2018-05-31T08:53:00.540Z,993.38
2018-05-31T08:54:00.542Z,993.36
2018-05-31T08:55:00.537Z,993.35
2018-05-31T08:56:00.536Z,993.35
2018-05-31T08:57:00.549Z,993.37
2018-05-31T08:58:00.533Z,993.37
2018-05-31T08:59:00.526Z,993.42
2018-05-31T09:00:00.524Z,993.44
2018-05-31T09:01:00.524Z,993.46
2018-05-31T09:02:00.520Z,993.42
2018-05-31T09:03:00.521Z,993.42
2018-05-31T09:04:00.514Z,993.43
2018-05-31T09:05:00.507Z,993.48
2018-05-31T09:06:00.508Z,993.48
2018-05-31T09:07:00.507Z,993.45
2018-05-31T09:08:00.508Z,993.44
2018-05-31T09:09:00.501Z,993.48
2018-05-31T09:10:00.508Z,993.44
2018-05-31T09:11:00.508Z,993.47
2018-05-31T09:12:00.501Z,993.47
2018-05-31T09:13:00.503Z,993.43
2018-05-31T09:14:00.497Z,993.48
2018-05-31T09:15:00.494Z,993.43
2018-05-31T09:16:00.494Z,993.41
2018-05-31T09:17:00.488Z,993.39
2018-05-31T09:18:00.494Z,993.38
2018-05-31T09:19:00.494Z,993.35
2018-05-31T09:20:00.501Z,993.37
2018-05-31T09:21:00.483Z,993.40
2018-05-31T09:22:00.496Z,993.41
2018-05-31T09:23:00.488Z,993.42
2018-05-31T09:24:00.482Z,993.42
2018-05-31T09:25:00.482Z,993.45
2018-05-31T09:26:00.479Z,993.43
2018-05-31T09:27:00.476Z,993.46
2018-05-31T09:28:00.473Z,993.45
2018-05-31T09:29:00.476Z,993.44
2018-05-31T09:30:00.467Z,993.48
2018-05-31T09:31:00.470Z,993.42
2018-05-31T09:32:00.467Z,993.43
2018-05-31T09:33:00.463Z,993.46
2018-05-31T09:34:00.463Z,993.43
2018-05-31T09:35:00.482Z,993.44
2018-05-31T09:36:00.470Z,993.45
2018-05-31T09:37:00.457Z,993.43
2018-05-31T09:38:00.463Z,993.46
2018-05-31T09:39:00.454Z,993.43
2018-05-31T09:40:00.460Z,993.44
2018-05-31T09:41:00.453Z,993.41
2018-05-31T09:42:00.450Z,993.44
2018-05-31T09:43:00.451Z,993.42
2018-05-31T09:44:00.450Z,993.41
2018-05-31T09:45:00.453Z,993.44
2018-05-31T09:46:00.455Z,993.41
2018-05-31T09:47:00.447Z,993.43
2018-05-31T09:48:00.444Z,993.39
2018-05-31T09:49:00.444Z,993.38
2018-05-31T09:50:00.449Z,993.39
2018-05-31T09:51:00.447Z,993.39
2018-05-31T09:52:00.444Z,993.41
2018-05-31T09:53:00.438Z,993.39
2018-05-31T09:54:00.448Z,993.35
2018-05-31T09:55:00.479Z,993.35
2018-05-31T09:56:00.431Z,993.33
2018-05-31T09:57:00.438Z,993.36
2018-05-31T09:58:00.452Z,993.33
2018-05-31T09:59:00.433Z,993.32
2018-05-31T10:00:00.434Z,993.34
2018-05-31T10:01:00.432Z,993.35
2018-05-31T10:02:00.433Z,993.33
2018-05-31T10:03:00.434Z,993.31
2018-05-31T10:04:00.431Z,993.38
2018-05-31T10:05:00.428Z,993.31
2018-05-31T10:06:00.425Z,993.34
2018-05-31T10:07:00.425Z,993.36
2018-05-31T10:08:00.431Z,993.34
2018-05-31T10:09:00.431Z,993.32
2018-05-31T10:10:00.423Z,993.33
2018-05-31T10:11:00.425Z,993.35
2018-05-31T10:12:00.426Z,993.31
2018-05-31T10:13:00.419Z,993.33
2018-05-31T10:14:00.413Z,993.30
2018-05-31T10:15:00.422Z,993.29
2018-05-31T10:16:00.425Z,993.29
2018-05-31T10:17:00.415Z,993.31
2018-05-31T10:18:00.416Z,993.31
2018-05-31T10:19:00.421Z,993.27
2018-05-31T10:20:00.419Z,993.25
2018-05-31T10:21:00.425Z,993.24
2018-05-31T10:22:00.420Z,993.23
2018-05-31T10:23:00.444Z,993.20
2018-05-31T10:24:00.418Z,993.19
2018-05-31T10:25:00.422Z,993.19
2018-05-31T10:26:00.425Z,993.18
2018-05-31T10:27:00.425Z,993.19
2018-05-31T10:28:00.425Z,993.24
2018-05-31T10:29:00.425Z,993.25
2018-05-31T10:30:00.435Z,993.24
2018-05-31T10:31:00.435Z,993.24
2018-05-31T10:32:00.444Z,993.26
2018-05-31T10:33:00.433Z,993.27
2018-05-31T10:34:00.435Z,993.25
2018-05-31T10:35:00.441Z,993.27
2018-05-31T10:36:00.438Z,993.24
2018-05-31T10:37:00.441Z,993.26
2018-05-31T10:38:00.438Z,993.23
2018-05-31T10:39:00.444Z,993.26
2018-05-31T10:40:00.437Z,993.26
2018-05-31T10:41:00.438Z,993.21
2018-05-31T10:42:00.448Z,993.21
2018-05-31T10:43:00.445Z,993.21
2018-05-31T10:44:00.448Z,993.17
2018-05-31T10:45:00.451Z,993.19
2018-05-31T10:46:00.452Z,993.20
2018-05-31T10:47:00.448Z,993.20
2018-05-31T10:48:00.448Z,993.18
2018-05-31T10:49:00.501Z,993.17
2018-05-31T10:50:00.454Z,993.13
2018-05-31T10:51:00.465Z,993.18
2018-05-31T10:52:00.454Z,993.14
2018-05-31T10:53:00.461Z,993.11
2018-05-31T10:54:00.457Z,993.14
2018-05-31T10:55:00.458Z,993.10
2018-05-31T10:56:00.464Z,993.09
2018-05-31T10:57:00.461Z,993.12
2018-05-31T10:58:00.462Z,993.09
2018-05-31T10:59:00.460Z,993.12
2018-05-31T11:00:00.464Z,993.14
2018-05-31T11:01:00.468Z,993.09
2018-05-31T11:02:00.461Z,993.12
2018-05-31T11:03:00.465Z,993.14
2018-05-31T11:04:00.464Z,993.11
2018-05-31T11:05:00.467Z,993.14
2018-05-31T11:06:00.467Z,993.13
2018-05-31T11:07:00.473Z,993.14
2018-05-31T11:08:00.464Z,993.13
2018-05-31T11:09:00.460Z,993.08
2018-05-31T11:10:00.467Z,993.12
2018-05-31T11:11:00.461Z,993.10
2018-05-31T11:12:00.470Z,993.12
2018-05-31T11:13:00.464Z,993.14
2018-05-31T11:14:00.464Z,993.11
2018-05-31T11:15:00.482Z,993.08
2018-05-31T11:16:00.471Z,993.07
2018-05-31T11:17:00.477Z,993.09
2018-05-31T11:18:00.473Z,993.08
2018-05-31T11:19:00.489Z,993.07
2018-05-31T11:20:01.089Z,993.09
2018-05-31T11:21:00.503Z,993.08
2018-05-31T11:22:00.496Z,993.09
2018-05-31T11:23:00.518Z,993.07
2018-05-31T11:24:00.502Z,993.06
2018-05-31T11:25:00.518Z,993.05
2018-05-31T11:26:00.515Z,993.04
2018-05-31T11:27:00.530Z,993.01
2018-05-31T11:28:00.534Z,992.97
2018-05-31T11:29:00.545Z,993.02
2018-05-31T11:30:00.543Z,992.95
2018-05-31T11:31:00.563Z,992.94
2018-05-31T11:32:00.562Z,992.90
2018-05-31T11:33:00.571Z,992.89
2018-05-31T11:34:00.576Z,992.93
2018-05-31T11:35:00.579Z,992.92
2018-05-31T11:36:00.585Z,992.91
2018-05-31T11:37:00.595Z,992.85
2018-05-31T11:38:00.604Z,992.92
2018-05-31T11:39:00.614Z,992.86
2018-05-31T11:40:00.611Z,992.90
2018-05-31T11:41:00.628Z,992.87
2018-05-31T11:42:00.644Z,992.86
2018-05-31T11:43:00.635Z,992.83
2018-05-31T11:44:00.638Z,992.79
2018-05-31T11:45:00.644Z,992.79
2018-05-31T11:46:00.653Z,992.79
2018-05-31T11:47:00.649Z,992.74
2018-05-31T11:48:00.651Z,992.77
2018-05-31T11:49:00.662Z,992.73
2018-05-31T11:50:00.653Z,992.77
2018-05-31T11:51:00.652Z,992.73
2018-05-31T11:52:00.662Z,992.77
2018-05-31T11:53:00.662Z,992.73
2018-05-31T11:54:00.663Z,992.67
2018-05-31T11:55:00.675Z,992.70
2018-05-31T11:56:00.675Z,992.68
2018-05-31T11:57:00.687Z,992.65
2018-05-31T11:58:00.681Z,992.71
2018-05-31T11:59:00.683Z,992.70
2018-05-31T12:00:00.684Z,992.65
2018-05-31T12:01:00.691Z,992.69
2018-05-31T12:02:00.700Z,992.66
2018-05-31T12:03:00.703Z,992.64
2018-05-31T12:04:00.697Z,992.62
2018-05-31T12:05:00.708Z,992.67
2018-05-31T12:06:00.727Z,992.73
2018-05-31T12:07:00.719Z,992.71
2018-05-31T12:08:00.729Z,992.77
2018-05-31T12:09:00.723Z,992.81
2018-05-31T12:10:00.726Z,992.74
2018-05-31T12:11:00.732Z,992.72
2018-05-31T12:12:00.736Z,992.78
2018-05-31T12:13:00.745Z,992.70
2018-05-31T12:14:00.748Z,992.69
2018-05-31T12:15:00.748Z,992.64
2018-05-31T12:16:00.755Z,992.68
2018-05-31T12:17:00.754Z,992.69
2018-05-31T12:18:00.761Z,992.67
2018-05-31T12:19:00.761Z,992.69
2018-05-31T12:20:00.765Z,992.65
2018-05-31T12:21:00.767Z,992.64
2018-05-31T12:22:00.772Z,992.65
2018-05-31T12:23:00.770Z,992.70
2018-05-31T12:24:00.780Z,992.66
2018-05-31T12:25:00.778Z,992.67
2018-05-31T12:26:00.777Z,992.69
2018-05-31T12:27:00.781Z,992.70
2018-05-31T12:28:00.780Z,992.70